Time;durP1;ratioP1;P1;durP2;ratioP2;P2;SDS_P1;SDS_P2;PMS_P1;PMS_P2;Temp;Humidity;BMP_temperature;BMP_pressure;BME280_temperature;BME280_humidity;BME280_pressure;Samples;Min_cycle;Max_cycle;Signal;HPM_P1;HPM_P2
2022/03/22 00:00:09;;;;;;;17.13;11.63;;;6.60;1.00;;;;;;5067542;28;20307;-59
2022/03/22 00:02:36;;;;;;;16.67;12.07;;;6.70;1.00;;;;;;5071297;28;20194;-57
2022/03/22 00:05:02;;;;;;;15.40;11.30;;;6.60;1.00;;;;;;5069648;28;20445;-56
2022/03/22 00:07:27;;;;;;;16.70;11.10;;;6.60;1.00;;;;;;5071774;28;20544;-57
2022/03/22 00:09:53;;;;;;;19.63;11.33;;;6.50;1.00;;;;;;5068808;28;20534;-59
2022/03/22 00:12:19;;;;;;;14.00;11.33;;;6.40;1.00;;;;;;5069457;28;20199;-57
2022/03/22 00:14:44;;;;;;;17.37;11.70;;;6.40;1.00;;;;;;5069820;28;20464;-58
2022/03/22 00:17:10;;;;;;;21.70;12.60;;;6.40;1.00;;;;;;5070464;28;20183;-59
2022/03/22 00:19:36;;;;;;;16.00;11.20;;;6.40;1.00;;;;;;5068302;28;20219;-58
2022/03/22 00:22:02;;;;;;;18.50;12.23;;;6.30;1.00;;;;;;5070450;28;20438;-58
2022/03/22 00:24:28;;;;;;;15.77;11.70;;;6.30;1.00;;;;;;5071687;28;20277;-59
2022/03/22 00:26:55;;;;;;;18.10;11.63;;;6.20;1.00;;;;;;5071338;28;20445;-58
2022/03/22 00:29:20;;;;;;;15.70;10.90;;;6.20;1.00;;;;;;5070477;28;20450;-59
2022/03/22 00:31:46;;;;;;;14.80;10.60;;;6.30;1.00;;;;;;5068193;28;20446;-58
2022/03/22 00:34:14;;;;;;;12.80;10.57;;;6.30;1.00;;;;;;5063290;28;20580;-58
2022/03/22 00:36:41;;;;;;;13.50;10.30;;;6.30;1.00;;;;;;5071300;28;20179;-59
2022/03/22 00:39:07;;;;;;;13.30;10.70;;;6.20;1.00;;;;;;5067032;28;20999;-58
2022/03/22 00:41:33;;;;;;;12.13;10.10;;;6.10;1.00;;;;;;5069722;28;20970;-59
2022/03/22 00:43:58;;;;;;;12.37;10.10;;;6.20;1.00;;;;;;5068010;28;20460;-58
2022/03/22 00:46:24;;;;;;;13.43;9.27;;;6.20;1.00;;;;;;5067291;28;20227;-58
2022/03/22 00:48:49;;;;;;;12.83;9.33;;;6.20;1.00;;;;;;5071244;28;20190;-58
2022/03/22 00:51:15;;;;;;;17.20;11.00;;;6.20;1.00;;;;;;5063486;28;20195;-58
2022/03/22 00:53:41;;;;;;;11.60;9.10;;;6.10;1.00;;;;;;5071290;28;20187;-57
2022/03/22 00:56:08;;;;;;;13.37;9.23;;;6.10;1.00;;;;;;5068611;28;20192;-59
2022/03/22 00:58:34;;;;;;;12.57;8.57;;;6.10;1.00;;;;;;5072097;28;20591;-57
2022/03/22 01:01:01;;;;;;;12.50;9.50;;;6.10;1.00;;;;;;5070244;28;20497;-58
2022/03/22 01:03:28;;;;;;;10.53;8.07;;;6.10;1.00;;;;;;5065632;28;20450;-58
2022/03/22 01:05:54;;;;;;;10.80;8.67;;;6.10;1.00;;;;;;5070472;28;20792;-58
2022/03/22 01:08:20;;;;;;;11.30;8.87;;;6.10;1.00;;;;;;5068850;28;20511;-60
2022/03/22 01:10:52;;;;;;;12.20;9.43;;;6.10;1.00;;;;;;5067124;28;20815;-57
2022/03/22 01:13:19;;;;;;;12.67;9.13;;;6.10;1.00;;;;;;5069956;28;20644;-58
2022/03/22 01:15:45;;;;;;;14.90;10.70;;;6.10;1.00;;;;;;5068052;28;20915;-57
2022/03/22 01:18:12;;;;;;;12.10;9.47;;;6.20;1.00;;;;;;5065795;28;20477;-58
2022/03/22 01:20:40;;;;;;;14.67;8.53;;;6.20;1.00;;;;;;5068420;28;20226;-57
2022/03/22 01:23:07;;;;;;;10.90;8.80;;;6.20;1.00;;;;;;5066663;28;20446;-58
2022/03/22 01:25:34;;;;;;;13.60;10.80;;;6.30;1.00;;;;;;5067051;28;20451;-58
2022/03/22 01:28:05;;;;;;;11.97;8.87;;;6.20;1.00;;;;;;5070828;28;20441;-59
2022/03/22 01:30:31;;;;;;;11.40;9.27;;;6.10;1.00;;;;;;5051737;28;20448;-59
2022/03/22 01:32:57;;;;;;;15.50;9.50;;;6.20;1.00;;;;;;5064326;28;20536;-58
2022/03/22 01:35:24;;;;;;;11.67;8.93;;;6.20;1.00;;;;;;5069205;28;20806;-57
2022/03/22 01:37:52;;;;;;;13.27;9.50;;;6.30;1.00;;;;;;5066509;28;20482;-57
2022/03/22 01:40:20;;;;;;;9.30;8.33;;;6.30;1.00;;;;;;5070668;28;20478;-58
2022/03/22 01:42:46;;;;;;;13.60;10.00;;;6.30;1.00;;;;;;5068094;28;20453;-57
2022/03/22 01:45:13;;;;;;;12.00;8.80;;;6.40;1.00;;;;;;5067563;28;20456;-59
2022/03/22 01:47:40;;;;;;;15.43;9.47;;;6.40;1.00;;;;;;5066843;28;20481;-57
2022/03/22 01:50:11;;;;;;;12.20;8.83;;;6.40;1.00;;;;;;5068539;28;20978;-57
2022/03/22 01:52:39;;;;;;;11.87;9.37;;;6.40;1.00;;;;;;5069347;28;20460;-58
2022/03/22 01:55:07;;;;;;;18.83;10.03;;;6.40;1.00;;;;;;5068566;28;20454;-58
2022/03/22 01:57:33;;;;;;;15.23;9.10;;;6.40;1.00;;;;;;5066672;28;20532;-57
2022/03/22 02:00:00;;;;;;;10.63;8.37;;;6.40;1.00;;;;;;5068767;28;20457;-57
2022/03/22 02:07:58;;;;;;;13.13;9.40;;;6.60;1.00;;;;;;5062525;28;20484;-58
2022/03/22 02:10:23;;;;;;;8.87;7.90;;;6.60;1.00;;;;;;5064677;28;21405;-58
2022/03/22 02:12:49;;;;;;;13.10;9.77;;;6.50;1.00;;;;;;5069603;28;20533;-57
2022/03/22 02:15:15;;;;;;;13.70;9.03;;;6.60;1.00;;;;;;5068596;28;20253;-58
2022/03/22 02:17:44;;;;;;;12.13;8.40;;;6.70;1.00;;;;;;5064303;28;20188;-57
2022/03/22 02:20:10;;;;;;;13.50;9.20;;;6.70;1.00;;;;;;5066944;28;20212;-60
2022/03/22 02:22:51;;;;;;;17.03;9.80;;;6.80;1.00;;;;;;5069085;28;20449;-57
2022/03/22 02:25:18;;;;;;;10.27;8.47;;;6.80;1.00;;;;;;5068097;28;20447;-57
2022/03/22 02:27:46;;;;;;;14.60;9.40;;;6.80;1.00;;;;;;5067668;28;20531;-58
2022/03/22 02:30:16;;;;;;;11.27;8.70;;;6.80;1.00;;;;;;5069777;28;20926;-57
2022/03/22 02:32:52;;;;;;;13.37;9.77;;;6.80;1.00;;;;;;5069884;28;21013;-58
2022/03/22 02:35:19;;;;;;;13.30;9.20;;;6.80;1.00;;;;;;5064395;28;20453;-58
2022/03/22 02:37:45;;;;;;;11.77;9.87;;;6.80;1.00;;;;;;5068912;28;20437;-58
2022/03/22 02:40:13;;;;;;;13.37;9.87;;;6.80;1.00;;;;;;5067375;28;20530;-58
2022/03/22 02:42:42;;;;;;;11.00;9.80;;;6.80;1.00;;;;;;5066645;28;20486;-57
2022/03/22 02:45:09;;;;;;;12.37;9.13;;;6.80;1.00;;;;;;5067771;28;20470;-57
2022/03/22 02:47:35;;;;;;;14.87;10.60;;;6.70;1.00;;;;;;5063815;28;20449;-59
2022/03/22 02:50:00;;;;;;;16.13;10.40;;;6.70;1.00;;;;;;5062654;28;20453;-58
2022/03/22 02:52:26;;;;;;;17.10;10.50;;;6.70;1.00;;;;;;5069341;28;20199;-59
2022/03/22 02:54:51;;;;;;;13.03;9.03;;;6.60;1.00;;;;;;5068773;28;20229;-57
2022/03/22 02:57:17;;;;;;;16.43;9.63;;;6.50;1.00;;;;;;5068074;28;20184;-57
2022/03/22 02:59:43;;;;;;;13.30;9.50;;;;;;;;;;5068826;28;20294;-58
2022/03/22 03:02:08;;;;;;;15.50;10.30;;;6.50;1.00;;;;;;5068961;28;20183;-58
2022/03/22 03:04:34;;;;;;;15.93;9.97;;;6.40;1.00;;;;;;5065799;28;20449;-58
2022/03/22 03:06:59;;;;;;;14.60;9.47;;;6.40;1.00;;;;;;5069828;28;20215;-57
2022/03/22 03:09:25;;;;;;;16.20;11.00;;;6.40;1.00;;;;;;5068508;28;20187;-58
2022/03/22 03:11:50;;;;;;;12.80;10.17;;;6.40;1.00;;;;;;5068808;28;20237;-56
2022/03/22 03:17:00;;;;;;;13.47;11.03;;;6.40;1.00;;;;;;5065841;28;20198;-59
2022/03/22 03:19:26;;;;;;;11.80;9.53;;;6.50;1.00;;;;;;5069085;28;20446;-56
2022/03/22 03:21:52;;;;;;;14.23;9.17;;;6.40;1.00;;;;;;5069374;28;20449;-57
2022/03/22 03:24:17;;;;;;;13.40;10.27;;;6.50;1.00;;;;;;5068667;28;20238;-57
2022/03/22 03:26:43;;;;;;;13.20;9.47;;;6.40;1.00;;;;;;5065078;28;20215;-59
2022/03/22 03:29:09;;;;;;;14.73;10.43;;;6.40;1.00;;;;;;5068674;28;20325;-59
2022/03/22 03:31:35;;;;;;;13.33;9.03;;;6.30;1.00;;;;;;5064758;28;20259;-58
2022/03/22 03:34:00;;;;;;;11.50;9.10;;;6.40;1.00;;;;;;5066415;28;20806;-57
2022/03/22 03:36:26;;;;;;;12.17;10.33;;;;;;;;;;5066041;28;20754;-57
2022/03/22 03:38:52;;;;;;;11.90;10.63;;;6.30;1.00;;;;;;5068779;28;20255;-58
2022/03/22 03:47:03;;;;;;;12.63;9.50;;;6.10;1.00;;;;;;5067600;28;20837;-58
2022/03/22 03:47:07;;;;;;;13.73;10.23;;;6.10;1.00;;;;;;5068650;28;20460;-57
2022/03/22 03:49:37;;;;;;;11.20;8.90;;;6.10;1.00;;;;;;5065336;28;20441;-56
2022/03/22 03:52:07;;;;;;;14.30;10.27;;;6.10;1.00;;;;;;5062313;28;20502;-58
2022/03/22 03:54:33;;;;;;;12.97;9.33;;;6.00;1.00;;;;;;5066765;28;20710;-58
2022/03/22 03:56:58;;;;;;;13.93;9.80;;;6.00;1.00;;;;;;5062645;28;20468;-58
2022/03/22 03:59:24;;;;;;;11.90;9.57;;;5.90;1.00;;;;;;5068203;28;20458;-59
2022/03/22 04:01:49;;;;;;;11.90;10.07;;;5.90;1.00;;;;;;5068951;28;20188;-58
2022/03/22 04:04:15;;;;;;;11.90;9.43;;;5.90;1.00;;;;;;5071081;28;20191;-57
2022/03/22 04:06:41;;;;;;;12.50;9.53;;;5.90;1.00;;;;;;5065221;28;20280;-59
2022/03/22 04:09:06;;;;;;;14.63;10.37;;;5.80;1.00;;;;;;5071153;28;20496;-57
2022/03/22 04:11:32;;;;;;;15.23;10.90;;;5.90;1.00;;;;;;5070816;28;20191;-58
2022/03/22 04:13:57;;;;;;;12.80;9.43;;;5.90;1.00;;;;;;5069514;28;20660;-58
2022/03/22 04:16:23;;;;;;;14.20;10.10;;;5.80;1.00;;;;;;5070971;28;20598;-59
2022/03/22 04:18:50;;;;;;;15.00;11.43;;;5.70;1.00;;;;;;5071965;28;20710;-59
2022/03/22 04:21:16;;;;;;;15.83;10.77;;;5.70;1.00;;;;;;5066440;28;20225;-58
2022/03/22 04:23:41;;;;;;;14.23;10.67;;;5.60;1.00;;;;;;5069486;28;20529;-58
2022/03/22 04:26:07;;;;;;;14.70;10.73;;;5.60;1.00;;;;;;5064653;28;20659;-59
2022/03/22 04:34:01;;;;;;;15.40;10.67;;;5.50;1.00;;;;;;5070668;28;20464;-58
2022/03/22 04:36:28;;;;;;;14.10;10.20;;;5.50;1.00;;;;;;5070913;28;20506;-59
2022/03/22 04:38:54;;;;;;;15.33;11.30;;;5.40;1.00;;;;;;5070131;28;20183;-57
2022/03/22 04:41:20;;;;;;;14.53;10.37;;;;;;;;;;5069338;28;20551;-60
2022/03/22 04:43:46;;;;;;;16.13;11.63;;;5.50;1.00;;;;;;5065880;28;21012;-58
2022/03/22 04:46:18;;;;;;;16.03;10.67;;;5.50;1.00;;;;;;5071480;28;20434;-59
2022/03/22 04:48:47;;;;;;;15.77;11.00;;;5.50;1.00;;;;;;5071178;28;20194;-58
2022/03/22 04:56:48;;;;;;;13.70;9.90;;;5.30;1.00;;;;;;5070142;28;20456;-57
2022/03/22 04:59:24;;;;;;;13.23;10.27;;;5.30;1.00;;;;;;5071961;28;20876;-58
2022/03/22 05:01:51;;;;;;;13.13;10.37;;;5.30;1.00;;;;;;5066918;28;20438;-57
2022/03/22 05:04:17;;;;;;;15.50;10.40;;;5.30;1.00;;;;;;5068492;28;20452;-57
2022/03/22 05:06:44;;;;;;;14.57;10.13;;;5.30;1.00;;;;;;5070600;28;20469;-56
2022/03/22 05:09:10;;;;;;;16.87;10.47;;;5.30;1.00;;;;;;5069128;28;20464;-57
2022/03/22 05:11:36;;;;;;;17.80;11.70;;;5.20;1.00;;;;;;5068538;28;20198;-59
2022/03/22 05:14:03;;;;;;;12.27;10.83;;;5.20;1.00;;;;;;5068034;28;20441;-58
2022/03/22 05:16:31;;;;;;;18.50;11.50;;;5.20;1.00;;;;;;5069970;28;20446;-59
2022/03/22 05:18:57;;;;;;;13.87;9.80;;;5.30;1.00;;;;;;5069452;28;20453;-58
2022/03/22 05:21:24;;;;;;;20.07;11.13;;;5.20;1.00;;;;;;5071995;28;20500;-59
2022/03/22 05:23:51;;;;;;;14.33;10.27;;;5.20;1.00;;;;;;5071060;28;20787;-58
2022/03/22 05:26:17;;;;;;;17.43;11.30;;;5.20;1.00;;;;;;5067600;28;20500;-58
2022/03/22 05:28:46;;;;;;;19.33;13.20;;;5.30;1.00;;;;;;5068084;28;20465;-57
2022/03/22 05:31:14;;;;;;;17.43;11.40;;;5.20;1.00;;;;;;5068674;28;20441;-58
2022/03/22 05:33:40;;;;;;;14.40;10.80;;;5.20;1.00;;;;;;5070197;28;20444;-58
2022/03/22 05:36:07;;;;;;;16.90;11.97;;;5.20;1.00;;;;;;5069299;28;20488;-58
2022/03/22 05:38:33;;;;;;;13.27;10.87;;;5.30;1.00;;;;;;5068872;28;20953;-58
2022/03/22 05:41:07;;;;;;;17.20;11.97;;;5.30;1.00;;;;;;5068890;28;20473;-62
2022/03/22 05:43:32;;;;;;;13.73;10.20;;;5.40;1.00;;;;;;5070330;28;20464;-61
2022/03/22 05:45:58;;;;;;;14.27;11.37;;;5.40;1.00;;;;;;5069241;28;20442;-62
2022/03/22 05:48:24;;;;;;;15.73;12.27;;;5.40;1.00;;;;;;5070103;28;20266;-60
2022/03/22 05:50:50;;;;;;;17.10;11.90;;;5.40;1.00;;;;;;5068823;28;20524;-60
2022/03/22 05:53:16;;;;;;;14.93;12.50;;;5.60;1.00;;;;;;5069116;28;20850;-60
2022/03/22 05:55:42;;;;;;;15.83;10.43;;;5.60;1.00;;;;;;5069825;28;20661;-58
2022/03/22 05:58:08;;;;;;;17.70;12.10;;;5.60;1.00;;;;;;5068560;28;20182;-59
2022/03/22 06:00:35;;;;;;;21.37;11.70;;;5.70;1.00;;;;;;5069593;28;20946;-60
2022/03/22 06:03:01;;;;;;;20.87;12.27;;;5.60;1.00;;;;;;5070065;28;20437;-58
2022/03/22 06:05:28;;;;;;;14.90;11.77;;;5.60;1.00;;;;;;5070002;28;20472;-59
2022/03/22 06:07:55;;;;;;;18.57;12.10;;;5.70;1.00;;;;;;5070171;28;20445;-60
2022/03/22 06:10:21;;;;;;;16.77;11.40;;;5.90;1.00;;;;;;5070423;28;20926;-59
2022/03/22 06:12:49;;;;;;;18.97;12.07;;;5.90;1.00;;;;;;5067699;28;20445;-60
2022/03/22 06:15:20;;;;;;;16.00;11.37;;;5.90;1.00;;;;;;5069329;28;20441;-59
2022/03/22 06:17:47;;;;;;;16.63;11.67;;;6.00;1.00;;;;;;5069914;28;20816;-59
2022/03/22 06:20:14;;;;;;;20.03;12.20;;;6.10;1.00;;;;;;5070257;28;20481;-61
2022/03/22 06:22:40;;;;;;;15.63;12.70;;;6.20;1.00;;;;;;5069839;28;20443;-60
2022/03/22 06:25:06;;;;;;;16.57;11.30;;;6.50;1.00;;;;;;5065683;28;20939;-60
2022/03/22 06:27:35;;;;;;;18.20;11.50;;;6.80;1.00;;;;;;5067794;28;20442;-57
2022/03/22 06:30:03;;;;;;;14.83;11.57;;;7.20;1.00;;;;;;5069482;28;20453;-59
2022/03/22 06:32:28;;;;;;;16.27;11.50;;;7.40;1.00;;;;;;5070325;28;20540;-60
2022/03/22 06:34:54;;;;;;;15.60;11.53;;;7.50;1.00;;;;;;5068354;28;20552;-59
2022/03/22 06:37:19;;;;;;;15.87;11.83;;;7.50;1.00;;;;;;5068869;28;20195;-60
2022/03/22 06:39:45;;;;;;;17.03;11.73;;;7.50;1.00;;;;;;5069049;28;20184;-60
2022/03/22 06:42:10;;;;;;;14.13;11.00;;;7.40;1.00;;;;;;5070241;28;20210;-60
2022/03/22 06:44:37;;;;;;;15.60;12.57;;;7.50;1.00;;;;;;5069465;28;20183;-59
2022/03/22 06:47:04;;;;;;;16.60;13.67;;;7.50;1.00;;;;;;5068603;28;20187;-59
2022/03/22 06:49:29;;;;;;;17.83;11.50;;;7.60;1.00;;;;;;5070664;28;20442;-58
2022/03/22 06:51:56;;;;;;;18.50;12.20;;;8.10;1.00;;;;;;5070607;28;20776;-60
2022/03/22 06:54:22;;;;;;;19.93;12.33;;;8.10;1.00;;;;;;5070407;28;20195;-59
2022/03/22 06:56:48;;;;;;;15.77;11.93;;;8.10;1.00;;;;;;5070395;28;20452;-60
2022/03/22 06:59:13;;;;;;;15.77;11.77;;;8.10;1.00;;;;;;5073079;28;21643;-59
2022/03/22 07:01:39;;;;;;;15.80;12.33;;;8.30;1.00;;;;;;5068537;28;20217;-60
2022/03/22 07:04:04;;;;;;;16.77;12.30;;;8.20;1.00;;;;;;5069948;28;20190;-58
2022/03/22 07:06:30;;;;;;;14.50;11.33;;;8.30;1.00;;;;;;5067648;28;20289;-60
2022/03/22 07:08:55;;;;;;;17.40;12.60;;;8.40;1.00;;;;;;5050725;28;20183;-59
2022/03/22 07:14:05;;;;;;;18.03;11.60;;;8.80;1.00;;;;;;5069315;28;20210;-60
2022/03/22 07:16:31;;;;;;;16.53;10.83;;;8.90;1.00;;;;;;5069317;28;20942;-58
2022/03/22 07:18:56;;;;;;;14.53;11.10;;;8.90;1.00;;;;;;5067986;28;20179;-58
2022/03/22 07:21:22;;;;;;;14.40;11.13;;;9.40;1.00;;;;;;5067848;28;20203;-60
2022/03/22 07:23:47;;;;;;;11.53;9.53;;;9.60;1.00;;;;;;5069402;28;20183;-59
2022/03/22 07:26:14;;;;;;;16.03;10.53;;;9.60;1.00;;;;;;5067980;28;20467;-60
2022/03/22 07:28:40;;;;;;;14.43;11.30;;;9.60;1.00;;;;;;5070103;28;20186;-58
2022/03/22 07:31:06;;;;;;;18.20;11.90;;;9.80;1.00;;;;;;5068584;28;20433;-59
2022/03/22 07:33:31;;;;;;;13.77;10.90;;;9.90;1.00;;;;;;5068158;28;20644;-62
2022/03/22 07:35:57;;;;;;;21.93;10.70;;;10.10;1.00;;;;;;5072033;28;20184;-59
2022/03/22 07:38:22;;;;;;;13.90;10.97;;;10.20;1.00;;;;;;5073043;28;20183;-59
2022/03/22 07:40:48;;;;;;;15.17;10.70;;;10.40;1.00;;;;;;5073220;28;20211;-58
2022/03/22 07:43:13;;;;;;;14.20;10.20;;;10.40;1.00;;;;;;5072267;28;20188;-59
2022/03/22 07:45:39;;;;;;;13.50;10.93;;;;;;;;;;5073356;28;20214;-59
2022/03/22 07:48:05;;;;;;;16.07;11.77;;;10.60;1.00;;;;;;5073468;28;20664;-59
2022/03/22 07:53:15;;;;;;;13.23;10.50;;;10.70;1.00;;;;;;5070634;28;20276;-58
2022/03/22 07:55:42;;;;;;;13.33;10.43;;;10.80;1.00;;;;;;5072663;28;20588;-59
2022/03/22 07:58:09;;;;;;;14.37;11.20;;;10.90;1.00;;;;;;5070454;28;20195;-59
2022/03/22 08:00:37;;;;;;;11.40;9.60;;;11.10;1.00;;;;;;5070986;28;20465;-60
2022/03/22 08:03:04;;;;;;;14.20;9.97;;;11.10;1.00;;;;;;5068762;28;20917;-61
2022/03/22 08:05:31;;;;;;;17.00;11.80;;;11.30;1.00;;;;;;5071877;28;20523;-59
2022/03/22 08:07:59;;;;;;;11.70;10.23;;;11.40;1.00;;;;;;5072077;28;20469;-60
2022/03/22 08:10:25;;;;;;;12.50;10.87;;;11.50;1.00;;;;;;5070537;28;20449;-58
2022/03/22 08:12:52;;;;;;;11.90;9.60;;;11.50;1.00;;;;;;5072499;28;20438;-60
2022/03/22 08:15:20;;;;;;;13.83;10.33;;;11.70;1.00;;;;;;5072018;28;20441;-59
2022/03/22 08:17:46;;;;;;;13.87;11.27;;;11.70;1.00;;;;;;5070045;28;20446;-58
2022/03/22 08:20:13;;;;;;;15.33;9.90;;;11.80;1.00;;;;;;5072481;28;20472;-58
2022/03/22 08:23:00;;;;;;;14.17;10.50;;;11.90;1.00;;;;;;5068418;28;20187;-58
2022/03/22 08:25:33;;;;;;;12.67;10.60;;;11.90;1.00;;;;;;5072447;28;20512;-59
2022/03/22 08:28:00;;;;;;;12.67;10.50;;;12.10;1.00;;;;;;5070982;28;20518;-58
2022/03/22 08:30:26;;;;;;;11.43;10.10;;;12.10;1.00;;;;;;5070241;28;20814;-60
2022/03/22 08:32:54;;;;;;;13.20;10.67;;;12.30;1.00;;;;;;5073183;28;20990;-58
2022/03/22 08:35:21;;;;;;;13.63;11.57;;;12.40;1.00;;;;;;5071303;28;20441;-59
2022/03/22 08:37:47;;;;;;;12.37;10.00;;;12.50;1.00;;;;;;5067948;28;20444;-60
2022/03/22 08:40:14;;;;;;;14.30;10.10;;;12.80;1.00;;;;;;5071137;28;20585;-61
2022/03/22 08:42:44;;;;;;;12.70;10.80;;;12.80;1.00;;;;;;5073085;28;20795;-57
2022/03/22 08:45:14;;;;;;;11.40;9.67;;;13.00;1.00;;;;;;5070952;28;20529;-60
2022/03/22 08:47:41;;;;;;;12.60;11.07;;;13.00;1.00;;;;;;5071819;28;20438;-61
2022/03/22 08:50:12;;;;;;;11.77;9.63;;;13.10;1.00;;;;;;5070009;28;21162;-61
2022/03/22 08:52:38;;;;;;;14.87;11.33;;;14.70;1.00;;;;;;5070174;28;20977;-61
2022/03/22 08:55:07;;;;;;;13.47;10.80;;;13.30;1.00;;;;;;5069963;28;20441;-59
2022/03/22 08:57:36;;;;;;;11.60;10.43;;;13.40;1.00;;;;;;5070475;28;20988;-61
2022/03/22 09:00:09;;;;;;;19.53;11.30;;;13.60;1.00;;;;;;5071563;28;20510;-63
2022/03/22 09:02:38;;;;;;;12.97;10.47;;;13.90;1.00;;;;;;5070213;28;20433;-63
2022/03/22 09:07:51;;;;;;;11.47;10.00;;;14.00;1.00;;;;;;5072138;28;20436;-63
2022/03/22 09:10:21;;;;;;;12.10;9.73;;;14.30;1.00;;;;;;5071925;28;20473;-62
2022/03/22 09:12:50;;;;;;;12.93;9.97;;;14.40;1.00;;;;;;5053907;28;20444;-63
2022/03/22 09:15:17;;;;;;;13.73;10.60;;;14.40;1.00;;;;;;5071746;28;20841;-64
2022/03/22 09:17:43;;;;;;;11.67;10.57;;;14.60;1.00;;;;;;5071853;28;20441;-63
2022/03/22 09:20:12;;;;;;;13.27;10.17;;;14.70;1.00;;;;;;5071764;28;20461;-63
2022/03/22 09:22:39;;;;;;;11.47;10.17;;;14.90;1.00;;;;;;5071568;28;20183;-63
2022/03/22 09:25:07;;;;;;;15.30;10.20;;;;;;;;;;5071686;28;20478;-63
2022/03/22 09:27:32;;;;;;;14.30;9.63;;;14.90;1.00;;;;;;5053719;28;20464;-64
2022/03/22 09:29:58;;;;;;;11.07;9.97;;;14.90;1.00;;;;;;5071584;28;20943;-61
2022/03/22 09:32:23;;;;;;;15.40;10.80;;;14.90;1.00;;;;;;5071527;28;20180;-64
2022/03/22 09:34:49;;;;;;;11.10;9.90;;;15.20;1.00;;;;;;5053081;28;20277;-61
2022/03/22 09:37:16;;;;;;;12.97;10.07;;;16.50;1.00;;;;;;5071689;28;20187;-62
2022/03/22 09:39:43;;;;;;;12.10;10.73;;;15.20;1.00;;;;;;5071209;28;20199;-63
2022/03/22 09:42:09;;;;;;;16.33;10.53;;;;;;;;;;5071176;28;20923;-62
2022/03/22 09:44:35;;;;;;;13.17;10.10;;;20.20;1.00;;;;;;5071326;28;20544;-62
2022/03/22 09:47:03;;;;;;;12.27;10.83;;;15.10;1.00;;;;;;5071436;28;20465;-63
2022/03/22 09:49:30;;;;;;;12.37;10.70;;;15.10;1.00;;;;;;5071050;28;20649;-63
2022/03/22 09:51:57;;;;;;;11.90;10.10;;;15.30;1.00;;;;;;5053377;28;20433;-62
2022/03/22 09:54:23;;;;;;;11.50;10.40;;;15.70;1.00;;;;;;5071291;28;20520;-64
2022/03/22 09:56:50;;;;;;;12.33;9.87;;;15.60;1.00;;;;;;5070587;28;20545;-61
2022/03/22 09:59:17;;;;;;;14.20;10.80;;;15.70;1.00;;;;;;5070964;28;20446;-61
2022/03/22 10:01:44;;;;;;;12.27;11.07;;;15.70;1.00;;;;;;5071021;28;20515;-62
2022/03/22 10:04:13;;;;;;;13.30;10.03;;;16.10;1.00;;;;;;5070975;28;20767;-62
2022/03/22 10:06:50;;;;;;;11.43;10.23;;;16.20;1.00;;;;;;5070896;28;20488;-62
2022/03/22 10:09:30;;;;;;;10.87;9.77;;;16.10;1.00;;;;;;5071183;28;20433;-62
2022/03/22 10:11:56;;;;;;;12.63;10.30;;;16.10;1.00;;;;;;5070954;28;20437;-63
2022/03/22 10:14:36;;;;;;;11.97;10.70;;;16.10;1.00;;;;;;5071079;28;20495;-62
2022/03/22 10:17:09;;;;;;;12.77;9.80;;;16.20;1.00;;;;;;5071204;28;20434;-62
2022/03/22 10:19:45;;;;;;;10.57;9.27;;;16.30;1.00;;;;;;5071007;28;20465;-61
2022/03/22 10:22:11;;;;;;;11.30;9.70;;;16.30;1.00;;;;;;5070485;28;20482;-61
2022/03/22 10:24:48;;;;;;;12.87;10.03;;;16.30;1.00;;;;;;5070812;28;20434;-62
2022/03/22 10:27:28;;;;;;;11.80;10.20;;;16.40;1.00;;;;;;5070386;28;20512;-62
2022/03/22 10:29:55;;;;;;;10.50;9.40;;;16.40;1.00;;;;;;5070527;28;20506;-63
2022/03/22 10:32:39;;;;;;;11.40;9.53;;;16.50;1.00;;;;;;5070396;28;20524;-61
2022/03/22 10:35:16;;;;;;;13.13;10.57;;;16.60;1.00;;;;;;5070569;28;20441;-62
2022/03/22 10:37:46;;;;;;;11.87;9.73;;;16.60;1.00;;;;;;5070747;28;20433;-63
2022/03/22 10:40:41;;;;;;;14.60;10.97;;;16.40;1.00;;;;;;5070360;28;20457;-62
2022/03/22 10:43:12;;;;;;;11.17;9.90;;;16.50;1.00;;;;;;5068105;28;20460;-62
2022/03/22 10:46:00;;;;;;;11.20;10.00;;;16.80;1.00;;;;;;5069760;28;20441;-61
2022/03/22 10:48:40;;;;;;;14.73;10.80;;;17.10;1.00;;;;;;5070338;28;20445;-61
2022/03/22 10:51:06;;;;;;;14.23;9.90;;;17.10;1.00;;;;;;5070219;28;20536;-61
2022/03/22 10:53:34;;;;;;;17.33;10.53;;;17.10;1.00;;;;;;5070301;28;20438;-61
2022/03/22 10:56:02;;;;;;;12.80;10.30;;;17.20;1.00;;;;;;5051889;28;20544;-61
2022/03/22 10:58:31;;;;;;;9.73;8.80;;;17.20;1.00;;;;;;5070029;28;20449;-62
2022/03/22 11:00:59;;;;;;;15.97;10.07;;;17.20;1.00;;;;;;5069945;28;20461;-61
2022/03/22 11:03:29;;;;;;;12.93;10.27;;;17.30;1.00;;;;;;5069953;28;20950;-64
2022/03/22 11:05:57;;;;;;;11.00;9.90;;;17.40;1.00;;;;;;5069477;28;20473;-62
2022/03/22 11:08:25;;;;;;;11.70;10.50;;;17.40;1.00;;;;;;5070261;28;20535;-62
2022/03/22 11:10:53;;;;;;;11.87;10.03;;;17.40;1.00;;;;;;5074175;28;20445;-62
2022/03/22 11:13:19;;;;;;;14.30;10.60;;;17.50;1.00;;;;;;5074246;28;20444;-62
2022/03/22 11:15:46;;;;;;;11.60;10.00;;;17.40;1.00;;;;;;5074250;28;20532;-62
2022/03/22 11:18:14;;;;;;;10.77;9.63;;;17.60;1.00;;;;;;5073871;28;20183;-62
2022/03/22 11:20:50;;;;;;;10.27;8.30;;;17.60;1.00;;;;;;5073823;28;20461;-62
2022/03/22 11:23:19;;;;;;;10.10;8.90;;;17.40;1.00;;;;;;5073649;28;20429;-62
2022/03/22 11:25:45;;;;;;;10.97;9.67;;;17.50;1.00;;;;;;5073940;28;20437;-62
2022/03/22 11:28:13;;;;;;;12.37;9.20;;;17.50;1.00;;;;;;5073602;28;20433;-61
2022/03/22 11:30:40;;;;;;;11.43;10.23;;;17.60;1.00;;;;;;5073842;28;20437;-63
2022/03/22 11:35:57;;;;;;;15.10;10.03;;;17.80;1.00;;;;;;5073992;28;20492;-62
2022/03/22 11:38:46;;;;;;;13.63;9.67;;;18.00;1.00;;;;;;5073603;28;20429;-62
2022/03/22 11:44:14;;;;;;;12.80;9.57;;;18.20;1.00;;;;;;5073497;28;20420;-63
2022/03/22 11:46:40;;;;;;;11.20;9.37;;;18.30;1.00;;;;;;5073701;28;20444;-62
2022/03/22 11:49:21;;;;;;;11.13;10.03;;;18.30;1.00;;;;;;5073828;28;20437;-61
2022/03/22 11:51:52;;;;;;;11.27;10.27;;;18.20;1.00;;;;;;5073551;28;20425;-63
2022/03/22 11:54:19;;;;;;;13.07;10.00;;;18.50;1.00;;;;;;5073186;28;20425;-64
2022/03/22 11:56:47;;;;;;;11.97;10.43;;;18.50;1.00;;;;;;5055368;28;20452;-62
2022/03/22 11:59:18;;;;;;;10.97;9.83;;;18.40;1.00;;;;;;5073829;28;20428;-60
2022/03/22 12:01:55;;;;;;;14.27;11.10;;;18.40;1.00;;;;;;5073206;28;20469;-63
2022/03/22 12:04:31;;;;;;;11.93;10.63;;;18.40;1.00;;;;;;5073224;28;20441;-60
2022/03/22 12:06:57;;;;;;;11.47;10.20;;;18.50;1.00;;;;;;5073161;28;20493;-61
2022/03/22 12:09:26;;;;;;;14.63;10.17;;;18.50;1.00;;;;;;5072790;28;20810;-62
2022/03/22 12:11:51;;;;;;;11.80;10.60;;;18.50;1.00;;;;;;5073004;28;20476;-61
2022/03/22 12:14:28;;;;;;;13.43;10.67;;;18.70;1.00;;;;;;5072907;28;20538;-61
2022/03/22 12:16:56;;;;;;;11.90;10.33;;;18.60;1.00;;;;;;5072904;28;20541;-63
2022/03/22 12:19:30;;;;;;;11.60;10.40;;;18.50;1.00;;;;;;5073050;28;20441;-61
2022/03/22 12:21:57;;;;;;;11.37;10.17;;;18.40;1.00;;;;;;5072290;28;20468;-62
2022/03/22 12:24:24;;;;;;;16.70;11.00;;;18.40;1.00;;;;;;5072736;28;20437;-61
2022/03/22 12:26:53;;;;;;;12.90;10.33;;;18.40;1.00;;;;;;5072570;28;20517;-62
2022/03/22 12:29:26;;;;;;;13.10;11.23;;;18.40;1.00;;;;;;5068672;28;20899;-63
2022/03/22 12:31:54;;;;;;;12.07;10.33;;;18.50;1.00;;;;;;5070951;28;20499;-61
2022/03/22 12:34:22;;;;;;;11.47;10.37;;;18.40;1.00;;;;;;5072656;28;20951;-62
2022/03/22 12:36:48;;;;;;;13.03;10.90;;;18.40;1.00;;;;;;5072521;28;20430;-61
2022/03/22 12:39:13;;;;;;;11.60;10.47;;;18.50;1.00;;;;;;5054820;28;20444;-63
2022/03/22 12:41:39;;;;;;;11.60;10.40;;;;;;;;;;5072604;28;20203;-62
2022/03/22 12:44:06;;;;;;;13.27;10.87;;;18.60;1.00;;;;;;5072619;28;20187;-63
2022/03/22 12:46:32;;;;;;;10.47;9.37;;;18.70;1.00;;;;;;5072540;28;20520;-63
2022/03/22 12:48:58;;;;;;;11.27;10.17;;;18.80;1.00;;;;;;5054349;28;20434;-63
2022/03/22 12:51:25;;;;;;;11.77;10.60;;;18.80;1.00;;;;;;5054641;28;20444;-63
2022/03/22 12:53:51;;;;;;;14.40;9.67;;;18.80;1.00;;;;;;5069070;28;20655;-63
2022/03/22 12:56:20;;;;;;;11.67;10.47;;;18.90;1.00;;;;;;5072159;28;20438;-62
2022/03/22 12:58:45;;;;;;;11.77;10.57;;;18.70;1.00;;;;;;5072658;28;20951;-61
2022/03/22 13:01:12;;;;;;;11.70;10.10;;;18.50;1.00;;;;;;5054006;28;20470;-64
2022/03/22 13:03:38;;;;;;;11.50;10.30;;;18.70;1.00;;;;;;5072509;28;20187;-64
2022/03/22 13:06:07;;;;;;;16.50;10.77;;;18.70;1.00;;;;;;5071975;28;20466;-63
2022/03/22 13:11:29;;;;;;;11.63;10.53;;;18.80;1.00;;;;;;5068465;28;20468;-63
2022/03/22 13:16:40;;;;;;;11.87;10.60;;;18.70;1.00;;;;;;5072209;28;20428;-63
2022/03/22 13:19:07;;;;;;;15.23;10.27;;;18.80;1.00;;;;;;5071485;28;20520;-63
2022/03/22 13:21:35;;;;;;;9.80;8.80;;;18.90;1.00;;;;;;5071777;28;21084;-63
2022/03/22 13:24:04;;;;;;;10.10;9.10;;;18.80;1.00;;;;;;5071177;28;20430;-62
2022/03/22 13:26:32;;;;;;;9.27;8.13;;;18.80;1.00;;;;;;5071365;28;20441;-62
2022/03/22 13:28:58;;;;;;;9.93;8.93;;;18.80;1.00;;;;;;5071601;28;20520;-63
2022/03/22 13:31:25;;;;;;;10.20;8.93;;;18.80;1.00;;;;;;5071052;28;20457;-64